Burgas, Bulgaria
Current Conditions -  °F | °C
As of 1:00 PM on Wednesday 22 Oct 2014 (Local Time) from LBBG Reporting Station
Scattered Clouds Scattered Clouds  
Wind Chill: 68°   Ceiling: Unl
Heat Index: 68°   Visibility: 6mi
Dew Point: 55°   Wind: 18mph
Humidity: 64%   Direction: 220°SW
Pressure: 29.71"   Gusts: NA
Location:  42.51°N, 27.47°E
Report Text: LBBG 221000Z 22008MPS 9999 SCT033 20/13 Q1006 NOSIG
Loading
Personal Weather Stations






























Interactive Weather Map
Tropical Storm Tracking
New forecast layout! Learn more

10-Day Weather Forecast

Advertisements
Track Severe Weather on mobile